M I D A S
Marine Information and Data Acquisition System
Tripno 1721 of the Zeeleeuw from 2009-01-16 07:30:54 to 2009-01-16 12:52:50
Back to CruiseResearch ActivitiesStationsMapUnderway DataData graphs

EquipmentUnitsComment
TimeDGPSUTC
LatitudeDGPSDM.mWGS84
LongitudeDGPSDM.mWGS84
HeadingGyrodeg 
SOGDGPSknotsSpeed over ground
COGDGPSdegCourse over ground
DepthEcho soundermeters200 kHz
Missing or incorrect values are displayed as -999
Navigation data collected by the RV Zeeleeuw from 2009-01-16 07:31:05 to 2009-01-16 13:02:10
Time Latitude Longitude Heading SOG COG Depth
2009-01-16 07:32:10 51°13.675 2°55.924 113.3 2.3 299 -999
2009-01-16 07:33:10 51°13.688 2°55.854 92.3 3 278 -999
2009-01-16 07:34:10 51°13.689 2°55.784 74.8 2 267 11.7
2009-01-16 07:35:10 51°13.717 2°55.784 3.5 3 353 12.2
2009-01-16 07:36:10 51°13.765 2°55.725 312.7 4.9 312 9.7
2009-01-16 07:37:10 51°13.836 2°55.629 329.1 6 331 9.9
2009-01-16 07:38:10 51°13.929 2°55.554 334.3 6.6 333 9.8
2009-01-16 07:39:10 51°14.03 2°55.476 336.4 6.9 335 9.6
2009-01-16 07:40:10 51°14.134 2°55.397 335.7 7 334 9.7
2009-01-16 07:41:10 51°14.234 2°55.298 322.6 7.1 319 9.9
2009-01-16 07:42:10 51°14.323 2°55.152 313.1 8.4 312 10.5
2009-01-16 07:43:10 51°14.423 2°54.969 316.3 9.7 316 10.5
2009-01-16 07:44:10 51°14.564 2°54.825 336.1 10.6 331 9.8
2009-01-16 07:45:10 51°14.73 2°54.671 332.1 12.3 328 9.5
2009-01-16 07:46:10 51°14.904 2°54.494 329 12.5 326 10
2009-01-16 07:47:10 51°15.081 2°54.315 330.7 12.7 329 11.3
2009-01-16 07:48:10 51°15.261 2°54.142 330.7 12.6 329 11.2
2009-01-16 07:49:10 51°15.441 2°53.982 334 12.3 330 11.2
2009-01-16 07:50:10 51°15.616 2°53.811 330.6 12.4 326 10.7
2009-01-16 07:51:10 51°15.793 2°53.645 333.7 12.4 330 11
2009-01-16 07:52:10 51°15.972 2°53.48 333.2 12.5 330 11.1
2009-01-16 07:53:10 51°16.151 2°53.315 332.9 12.4 330 11.5
2009-01-16 07:54:10 51°16.332 2°53.15 335.3 12.5 333 11.5
2009-01-16 07:55:10 51°16.519 2°53.003 336.6 12.6 334 11.4
2009-01-16 07:56:10 51°16.709 2°52.867 337.5 12.4 336 10.7
2009-01-16 07:57:10 51°16.895 2°52.725 337 12.4 334 9.1
2009-01-16 07:58:10 51°17.085 2°52.597 343.1 12.4 342 9.3
2009-01-16 07:59:10 51°17.286 2°52.53 352.6 12.4 350 9.8
2009-01-16 08:00:10 51°17.491 2°52.481 357 12.4 354 10
2009-01-16 08:01:10 51°17.696 2°52.452 0.3 12.3 356 10
2009-01-16 08:02:10 51°17.901 2°52.438 0.7 12.4 357 10.2
2009-01-16 08:03:10 51°18.106 2°52.431 6.6 12.2 7 10.4
2009-01-16 08:04:10 51°18.304 2°52.503 18.7 12.3 15 10.6
2009-01-16 08:05:10 51°18.502 2°52.58 17.2 12.3 13 11
2009-01-16 08:06:10 51°18.699 2°52.653 16.9 11.3 14 11.4
2009-01-16 08:07:10 51°18.805 2°52.733 47.8 4.6 40 11.7
2009-01-16 08:08:10 51°18.843 2°52.796 69.3 2.6 51 11.7
2009-01-16 08:09:10 51°18.867 2°52.877 81.4 3.9 73 11.7
2009-01-16 08:10:10 51°18.876 2°52.977 97.9 3.5 92 11.6
2009-01-16 08:11:10 51°18.867 2°53.063 111.4 3.2 100 11.5
2009-01-16 08:12:10 51°18.868 2°53.149 91.2 3.4 81 11.5
2009-01-16 08:13:10 51°18.879 2°53.235 84.9 3.3 72 11.5
2009-01-16 08:14:10 51°18.908 2°53.312 61 3.4 50 11.5
2009-01-16 08:15:10 51°18.941 2°53.38 67 3.1 53 11.5
2009-01-16 08:16:10 51°18.971 2°53.444 66.4 3 52 11.5
2009-01-16 08:17:10 51°19.002 2°53.506 64.1 3 51 11.5
2009-01-16 08:18:10 51°19.034 2°53.566 61.7 3 47 11.5
2009-01-16 08:19:10 51°19.067 2°53.626 64 3 52 11.5
2009-01-16 08:20:10 51°19.098 2°53.687 63.1 3 48 11.5
2009-01-16 08:21:10 51°19.132 2°53.746 60.5 3.1 46 11.5
2009-01-16 08:22:10 51°19.165 2°53.805 62.3 2.9 50 11.6
2009-01-16 08:23:10 51°19.196 2°53.864 62 2.9 48 11.6
2009-01-16 08:24:10 51°19.229 2°53.921 62.1 2.9 46 11.6
2009-01-16 08:25:10 51°19.26 2°53.978 62 2.8 49 11.6
2009-01-16 08:26:10 51°19.292 2°54.033 62.5 2.8 48 11.6
2009-01-16 08:27:10 51°19.322 2°54.087 63.3 2.8 46 11.6
2009-01-16 08:28:10 51°19.352 2°54.14 63.5 2.7 49 11.6
2009-01-16 08:29:10 51°19.383 2°54.193 61.7 2.8 45 11.6
2009-01-16 08:30:10 51°19.414 2°54.245 63.8 2.6 48 11.6
2009-01-16 08:31:10 51°19.443 2°54.297 61.4 2.7 47 11.7
2009-01-16 08:32:10 51°19.474 2°54.348 61.2 2.7 47 11.7
2009-01-16 08:33:10 51°19.506 2°54.403 61 2.9 47 11.7
2009-01-16 08:34:10 51°19.538 2°54.46 62.2 2.9 49 11.8
2009-01-16 08:35:10 51°19.57 2°54.519 62.5 2.9 48 11.9
2009-01-16 08:36:10 51°19.604 2°54.577 61.6 2.9 47 11.8
2009-01-16 08:37:10 51°19.636 2°54.634 62 2.9 48 11.9
2009-01-16 08:38:10 51°19.667 2°54.692 62.8 2.9 50 11.9
2009-01-16 08:39:10 51°19.698 2°54.75 61.4 2.9 48 11.9
2009-01-16 08:40:10 51°19.73 2°54.805 61.5 2.8 48 12
2009-01-16 08:41:10 51°19.76 2°54.861 62.7 2.8 47 11.9
2009-01-16 08:42:10 51°19.791 2°54.917 62.1 2.8 46 11.9
2009-01-16 08:43:10 51°19.822 2°54.973 62.9 2.8 49 11.9
2009-01-16 08:44:10 51°19.853 2°55.029 61.7 2.8 49 12
2009-01-16 08:45:10 51°19.883 2°55.086 61.2 2.8 49 11.9
2009-01-16 08:46:10 51°19.914 2°55.142 61.9 2.8 50 11.9
2009-01-16 08:47:10 51°19.944 2°55.198 62.4 2.8 50 12
2009-01-16 08:48:10 51°19.975 2°55.254 61.7 2.7 50 12
2009-01-16 08:49:10 51°20.005 2°55.31 62.4 2.8 50 11.9
2009-01-16 08:50:10 51°20.034 2°55.366 64.9 2.7 53 11.9
2009-01-16 08:51:10 51°20.057 2°55.423 70.2 2.4 59 12
2009-01-16 08:52:10 51°20.068 2°55.481 88.8 2.4 82 11.9
2009-01-16 08:53:10 51°20.057 2°55.533 128.8 1.6 136 11.8
2009-01-16 08:54:10 51°20.044 2°55.549 131 0.5 137 11.8
2009-01-16 08:55:10 51°20.042 2°55.552 125.6 -999 321 11.8
2009-01-16 08:56:10 51°20.045 2°55.548 118.1 0.4 322 11.8
2009-01-16 08:57:10 51°20.048 2°55.546 119.7 0.7 119 11.8
2009-01-16 08:58:10 51°20.008 2°55.561 174.8 3.9 193 11.8
2009-01-16 08:59:10 51°19.926 2°55.471 208.4 9.1 214 11.5
2009-01-16 09:00:10 51°19.783 2°55.302 214.4 11.8 219 11.3
2009-01-16 09:01:10 51°19.634 2°55.071 223.7 12.7 228 11.1
2009-01-16 09:02:10 51°19.487 2°54.83 222.9 12.7 228 11
2009-01-16 09:03:10 51°19.353 2°54.569 226.7 12.7 232 10.9
2009-01-16 09:04:10 51°19.224 2°54.304 229 12.6 232 10.8
2009-01-16 09:05:10 51°19.092 2°54.044 226.6 12.6 230 10.6
2009-01-16 09:06:10 51°18.962 2°53.781 228.4 12.5 232 10.5
2009-01-16 09:07:10 51°18.83 2°53.524 227.7 12.6 231 10.4
2009-01-16 09:08:10 51°18.698 2°53.265 228 12.6 232 10.3
2009-01-16 09:09:10 51°18.565 2°53.007 226.5 12.5 230 10.1
2009-01-16 09:10:10 51°18.431 2°52.749 227.4 12.6 231 10
2009-01-16 09:11:10 51°18.3 2°52.491 227.4 12.5 231 9.7
2009-01-16 09:12:10 51°18.171 2°52.23 228.3 12.5 231 9.6
2009-01-16 09:13:10 51°18.042 2°51.969 228.9 12.5 231 9.4
2009-01-16 09:14:10 51°17.915 2°51.707 230.5 12.5 233 9
2009-01-16 09:15:10 51°17.794 2°51.437 233.7 12.6 235 8.8
2009-01-16 09:16:10 51°17.672 2°51.166 231 12.5 233 8.5
2009-01-16 09:17:10 51°17.548 2°50.897 231.6 12.5 234 8.3
2009-01-16 09:18:10 51°17.424 2°50.631 231 12.5 233 8.5
2009-01-16 09:19:10 51°17.298 2°50.366 230.3 12.4 233 8.1
2009-01-16 09:20:10 51°17.17 2°50.103 231.1 12.6 232 8.4
2009-01-16 09:21:10 51°17.042 2°49.841 230.3 12.5 229 8.2
2009-01-16 09:22:10 51°16.888 2°49.625 215.6 12.3 217 7.9
2009-01-16 09:23:10 51°16.723 2°49.425 215 12.5 218 8.7
2009-01-16 09:24:10 51°16.558 2°49.218 215.7 12.7 219 11.9
2009-01-16 09:25:10 51°16.398 2°49.015 214.8 9.7 218 14.2
2009-01-16 09:26:10 51°16.318 2°48.934 195.4 3.6 211 14.3
2009-01-16 09:27:10 51°16.284 2°48.891 192.8 2 230 14.2
2009-01-16 09:28:10 51°16.248 2°48.849 189.5 4 203 14
2009-01-16 09:29:10 51°16.182 2°48.799 196.2 4.4 210 13.5
2009-01-16 09:30:10 51°16.126 2°48.736 207 3.9 222 13.2
2009-01-16 09:31:10 51°16.086 2°48.659 217.4 3.6 233 13.2
2009-01-16 09:32:10 51°16.054 2°48.579 227.9 3.6 244 13.2
2009-01-16 09:33:10 51°16.034 2°48.495 235 3.2 250 13.3
2009-01-16 09:34:10 51°16.017 2°48.42 231.8 2.9 251 13.4
2009-01-16 09:35:10 51°16.002 2°48.35 231.8 2.7 253 13.4
2009-01-16 09:36:10 51°15.99 2°48.282 231.6 2.8 253 13.5
2009-01-16 09:37:10 51°15.973 2°48.209 228.3 3.1 248 13.5
2009-01-16 09:38:10 51°15.951 2°48.131 227.3 3.3 246 13.6
2009-01-16 09:39:10 51°15.929 2°48.052 227.9 3.2 247 13.5
2009-01-16 09:40:10 51°15.91 2°47.975 229.4 3 250 13.5
2009-01-16 09:41:10 51°15.894 2°47.9 230.4 3 252 13.6
2009-01-16 09:42:10 51°15.878 2°47.826 229.3 3 249 13.7
2009-01-16 09:43:10 51°15.86 2°47.751 229.3 3 249 13.8
2009-01-16 09:44:10 51°15.843 2°47.675 228.6 3.1 250 13.8
2009-01-16 09:45:10 51°15.826 2°47.597 229.7 3.1 252 14
2009-01-16 09:46:10 51°15.809 2°47.52 229.3 3.1 250 14
2009-01-16 09:47:10 51°15.792 2°47.444 230.3 3 251 13.7
2009-01-16 09:48:10 51°15.777 2°47.366 230.3 3 254 14
2009-01-16 09:49:10 51°15.762 2°47.291 230.1 3 253 14.1
2009-01-16 09:50:10 51°15.746 2°47.217 228.9 3 250 14
2009-01-16 09:51:10 51°15.729 2°47.141 228.9 3 251 14
2009-01-16 09:52:10 51°15.714 2°47.065 231.1 3 253 13.9
2009-01-16 09:53:10 51°15.7 2°46.99 230.3 3 252 14
2009-01-16 09:54:10 51°15.684 2°46.915 229 3 252 14
2009-01-16 09:55:10 51°15.669 2°46.839 230.6 3 252 14.3
2009-01-16 09:56:10 51°15.655 2°46.764 230.2 3 253 14.4
2009-01-16 09:57:10 51°15.64 2°46.689 229.2 3 253 14.5
2009-01-16 09:58:10 51°15.625 2°46.613 229.3 2.9 254 14.6
2009-01-16 09:59:10 51°15.612 2°46.539 230.2 2.9 254 14.8
2009-01-16 10:00:10 51°15.599 2°46.465 230.5 2.9 255 14.8
2009-01-16 10:01:10 51°15.585 2°46.391 229.5 2.9 254 14.8
2009-01-16 10:02:10 51°15.573 2°46.317 231.7 2.9 257 14.9
2009-01-16 10:03:10 51°15.563 2°46.242 231.7 2.9 258 15
2009-01-16 10:04:10 51°15.553 2°46.166 232.2 2.9 255 15.2
2009-01-16 10:05:10 51°15.54 2°46.09 230.3 3 255 15.5
2009-01-16 10:06:10 51°15.526 2°46.014 227.8 3 253 15.5
2009-01-16 10:07:10 51°15.511 2°45.94 227.4 2.9 254 15.7
2009-01-16 10:08:10 51°15.496 2°45.866 227.6 2.9 252 15.8
2009-01-16 10:09:10 51°15.481 2°45.793 227.9 2.9 252 15.7
2009-01-16 10:10:10 51°15.467 2°45.719 230 2.9 256 15.9
2009-01-16 10:11:10 51°15.455 2°45.645 230.4 3 255 16.1
2009-01-16 10:12:10 51°15.442 2°45.569 230.1 2.9 254 16.2
2009-01-16 10:13:10 51°15.428 2°45.494 229.5 3 252 16.3
2009-01-16 10:14:10 51°15.413 2°45.418 229 3.1 253 16.5
2009-01-16 10:15:10 51°15.401 2°45.337 241.2 3.2 258 16.4
2009-01-16 10:16:10 51°15.396 2°45.251 264.3 3.2 273 16.6
2009-01-16 10:17:10 51°15.408 2°45.167 294.3 3.3 291 16.6
2009-01-16 10:18:10 51°15.433 2°45.091 310.3 3.2 300 16.5
2009-01-16 10:19:10 51°15.483 2°45.042 16.1 2.8 355 15.6
2009-01-16 10:20:10 51°15.515 2°45.049 51.6 1.8 35 14.8
2009-01-16 10:21:10 51°15.524 2°45.109 95.2 2.9 103 14.9
2009-01-16 10:22:10 51°15.506 2°45.156 119.3 1.3 136 15.5
2009-01-16 10:23:10 51°15.495 2°45.168 121.6 0.4 161 15.8
2009-01-16 10:24:10 51°15.492 2°45.164 119.3 0.4 262 16
2009-01-16 10:25:10 51°15.492 2°45.151 115.2 0.6 285 15.9
2009-01-16 10:26:10 51°15.491 2°45.144 119.1 1.3 141 15.8
2009-01-16 10:27:10 51°15.433 2°45.183 148.2 7.3 155 16.4
2009-01-16 10:28:10 51°15.304 2°45.31 140.5 9.8 147 15.5
2009-01-16 10:29:10 51°15.166 2°45.455 142.4 10 146 14.3
2009-01-16 10:30:10 51°15.028 2°45.603 142.5 10 147 12.5
2009-01-16 10:31:10 51°14.891 2°45.75 142.3 10 146 10.3
2009-01-16 10:32:10 51°14.754 2°45.894 143 9.8 146 7.7
2009-01-16 10:33:10 51°14.618 2°46.032 144.4 9.9 149 7.2
2009-01-16 10:34:10 51°14.475 2°46.172 143.3 10.1 149 10.7
2009-01-16 10:35:10 51°14.332 2°46.313 142.5 10.1 147 10.8
2009-01-16 10:36:10 51°14.19 2°46.455 143.3 10 147 8.7
2009-01-16 10:37:10 51°14.071 2°46.584 139.2 6 144 6.9
2009-01-16 10:38:10 51°14.028 2°46.657 113.9 2.7 112 7.5
2009-01-16 10:39:10 51°14.038 2°46.731 68.8 4 66 5.3
2009-01-16 10:40:10 51°14.053 2°46.814 81.7 2.8 81 5.3
2009-01-16 10:41:10 51°14.055 2°46.891 88.4 3 86 7.8
2009-01-16 10:42:10 51°14.059 2°46.975 86.3 3.2 89 7.9
2009-01-16 10:43:10 51°14.061 2°47.059 86.9 3.1 89 8.4
2009-01-16 10:44:10 51°14.065 2°47.142 84.5 3.1 84 8.7
2009-01-16 10:45:10 51°14.069 2°47.223 84.4 3.1 84 8.9
2009-01-16 10:46:10 51°14.081 2°47.301 72.8 3.1 71 9
2009-01-16 10:47:10 51°14.096 2°47.378 75.9 3 75 9.1
2009-01-16 10:48:10 51°14.108 2°47.456 77.5 3 79 9.5
2009-01-16 10:49:10 51°14.116 2°47.534 80.5 3 82 9.6
2009-01-16 10:50:10 51°14.123 2°47.615 82.3 3.1 82 9.9
2009-01-16 10:51:10 51°14.131 2°47.697 78.7 3.2 78 9.8
2009-01-16 10:52:10 51°14.146 2°47.778 72 3.2 69 9.9
2009-01-16 10:53:10 51°14.172 2°47.851 59.9 3.2 58 10
2009-01-16 10:54:10 51°14.197 2°47.925 64.9 3.2 60 10
2009-01-16 10:55:10 51°14.222 2°47.999 63.5 3.2 62 10
2009-01-16 10:56:10 51°14.246 2°48.074 67.5 3.1 67 10
2009-01-16 10:57:10 51°14.267 2°48.151 69.9 3.1 68 10.1
2009-01-16 10:58:10 51°14.283 2°48.228 70.7 3.1 69 10.1
2009-01-16 10:59:10 51°14.306 2°48.305 64.9 3.2 66 10.1
2009-01-16 11:00:10 51°14.329 2°48.381 61.7 3.2 60 10.2
2009-01-16 11:01:10 51°14.36 2°48.451 57.4 3.2 55 10.2
2009-01-16 11:02:10 51°14.393 2°48.519 54 3.3 49 10.3
2009-01-16 11:03:11 51°14.429 2°48.586 54.8 3.2 52 10.4
2009-01-16 11:04:10 51°14.46 2°48.655 61.3 3.2 59 10.4
2009-01-16 11:05:10 51°14.483 2°48.73 64.1 3.2 63 10.6
2009-01-16 11:06:10 51°14.511 2°48.802 57.7 3.2 54 10.6
2009-01-16 11:07:10 51°14.544 2°48.87 53.8 3.3 50 10.7
2009-01-16 11:08:10 51°14.573 2°48.941 64.1 3.1 64 10.7
2009-01-16 11:09:10 51°14.594 2°49.015 68 3.1 67 10.9
2009-01-16 11:10:11 51°14.615 2°49.092 65.7 3.1 63 10.8
2009-01-16 11:11:10 51°14.638 2°49.164 64.1 3.2 63 10.8
2009-01-16 11:12:10 51°14.665 2°49.236 59.9 3.2 56 11
2009-01-16 11:13:10 51°14.696 2°49.305 56.6 3.2 52 11
2009-01-16 11:14:10 51°14.729 2°49.372 56.5 3.2 53 11.1
2009-01-16 11:15:10 51°14.755 2°49.446 71.4 3.1 75 11.1
2009-01-16 11:16:10 51°14.76 2°49.528 82.1 3.2 86 11.1
2009-01-16 11:17:10 51°14.758 2°49.612 90.1 3.1 98 11.1
2009-01-16 11:18:10 51°14.749 2°49.691 93.9 3 105 11.1
2009-01-16 11:19:10 51°14.721 2°49.752 124.5 3.2 140 11
2009-01-16 11:20:10 51°14.687 2°49.789 131.6 1.7 151 10.9
2009-01-16 11:21:10 51°14.668 2°49.801 133.1 0.9 169 10.9
2009-01-16 11:22:10 51°14.657 2°49.799 130.8 0.5 211 10.8
2009-01-16 11:23:10 51°14.644 2°49.8 138.2 2.2 161 10.8
2009-01-16 11:24:10 51°14.579 2°49.79 188 4.8 200 10.7
2009-01-16 11:25:10 51°14.52 2°49.726 219.2 4 229 10.6
2009-01-16 11:26:10 51°14.486 2°49.64 236.7 3.6 243 10.6
2009-01-16 11:27:10 51°14.462 2°49.56 240.9 3.1 247 10.6
2009-01-16 11:28:10 51°14.444 2°49.487 242.6 2.9 248 10.6
2009-01-16 11:29:10 51°14.424 2°49.412 240.8 3.3 246 10.6
2009-01-16 11:30:10 51°14.401 2°49.33 242 3.3 246 10.5
2009-01-16 11:31:10 51°14.379 2°49.251 242.6 3.2 249 10.6
2009-01-16 11:32:10 51°14.359 2°49.173 241.7 3.1 248 10.5
2009-01-16 11:33:10 51°14.339 2°49.096 241.3 3.1 247 10.6
2009-01-16 11:34:10 51°14.317 2°49.021 240 3.1 244 10.6
2009-01-16 11:35:11 51°14.294 2°48.943 242 3.2 246 10.5
2009-01-16 11:36:10 51°14.274 2°48.867 246.6 3.1 251 10.5
2009-01-16 11:37:10 51°14.256 2°48.788 247 3.2 250 10.6
2009-01-16 11:38:10 51°14.237 2°48.71 247.1 3.2 248 10.6
2009-01-16 11:39:10 51°14.218 2°48.631 247.5 3.2 251 10.5
2009-01-16 11:40:10 51°14.198 2°48.552 245.7 3.2 249 10.6
2009-01-16 11:41:10 51°14.178 2°48.474 246.3 3.2 247 10.5
2009-01-16 11:42:10 51°14.158 2°48.395 247.3 3.2 249 10.4
2009-01-16 11:43:10 51°14.14 2°48.314 250.2 3.2 251 10.4
2009-01-16 11:44:10 51°14.122 2°48.233 251.5 3.3 250 10.5
2009-01-16 11:45:10 51°14.105 2°48.149 256.9 3.3 254 10.5
2009-01-16 11:46:10 51°14.095 2°48.064 268.3 3.3 263 10.4
2009-01-16 11:47:10 51°14.09 2°47.978 272.1 3.2 267 10.6
2009-01-16 11:48:10 51°14.086 2°47.893 273.4 3.3 267 10.5
2009-01-16 11:49:11 51°14.083 2°47.807 273.2 3.2 268 10.5
2009-01-16 11:50:10 51°14.08 2°47.724 272.6 3.2 266 10.5
2009-01-16 11:51:10 51°14.076 2°47.639 271.9 3.2 264 10.4
2009-01-16 11:52:10 51°14.072 2°47.556 273.2 3.1 267 10.4
2009-01-16 11:53:10 51°14.07 2°47.475 273.1 3.1 268 10.3
2009-01-16 11:54:10 51°14.068 2°47.394 273.2 3.1 268 10.2
2009-01-16 11:55:11 51°14.067 2°47.311 277.3 3.1 270 9.7
2009-01-16 11:56:10 51°14.068 2°47.23 279.4 3.1 271 9.4
2009-01-16 11:57:10 51°14.07 2°47.147 280.2 3.1 272 9.3
2009-01-16 11:58:11 51°14.072 2°47.064 279.2 3.1 271 8.9
2009-01-16 11:59:10 51°14.073 2°46.984 278.4 3.1 272 8.7
2009-01-16 12:00:10 51°14.074 2°46.901 277.9 3.1 271 8.6
2009-01-16 12:01:10 51°14.075 2°46.818 279 3.1 272 8.1
2009-01-16 12:02:11 51°14.077 2°46.733 279.9 3.1 272 8.3
2009-01-16 12:03:10 51°14.08 2°46.652 280.5 3.1 276 8.1
2009-01-16 12:04:10 51°14.083 2°46.571 279.2 3.1 272 8.1
2009-01-16 12:05:10 51°14.085 2°46.491 280 3.1 272 8.4
2009-01-16 12:06:10 51°14.088 2°46.409 278.4 3.1 273 8.6
2009-01-16 12:07:11 51°14.093 2°46.326 285.3 3.1 278 8.8
2009-01-16 12:08:10 51°14.103 2°46.247 293.5 3.1 285 9.6
2009-01-16 12:09:11 51°14.118 2°46.168 300.8 3.1 290 10
2009-01-16 12:10:10 51°14.134 2°46.094 302.1 2.9 290 10.6
2009-01-16 12:11:11 51°14.157 2°46.017 317.6 3.2 306 10.9
2009-01-16 12:12:10 51°14.193 2°45.986 17.7 1.9 355 11.6
2009-01-16 12:13:10 51°14.216 2°45.984 34.7 1.1 359 11.7
2009-01-16 12:14:10 51°14.23 2°45.983 48.2 0.6 352 11.9
2009-01-16 12:15:10 51°14.237 2°45.979 61.3 0.4 317 11.9
2009-01-16 12:16:10 51°14.24 2°45.985 85.2 1.1 99 11.9
2009-01-16 12:17:10 51°14.229 2°46.086 90.3 6.1 91 11.6
2009-01-16 12:18:10 51°14.247 2°46.334 80.7 11.1 82 10.7
2009-01-16 12:19:10 51°14.27 2°46.631 81.5 11.2 83 10
2009-01-16 12:20:10 51°14.29 2°46.929 83 11.3 83 9.1
2009-01-16 12:21:10 51°14.306 2°47.227 83.9 11.3 86 8.8
2009-01-16 12:22:10 51°14.319 2°47.529 85.6 11.5 86 9.6
2009-01-16 12:23:10 51°14.331 2°47.831 84.8 11.4 87 10.5
2009-01-16 12:24:10 51°14.342 2°48.132 85.2 11.3 86 10.9
2009-01-16 12:25:10 51°14.348 2°48.433 85.4 11.4 86 11
2009-01-16 12:26:10 51°14.358 2°48.732 84.6 11.4 88 11
2009-01-16 12:27:10 51°14.366 2°49.034 85.2 11.4 87 11
2009-01-16 12:28:10 51°14.372 2°49.338 86 11.5 91 11
2009-01-16 12:29:10 51°14.38 2°49.641 84 11.4 86 10.9
2009-01-16 12:30:10 51°14.391 2°49.943 84.6 11.3 85 10.3
2009-01-16 12:31:10 51°14.414 2°50.243 80.8 11.4 82 9.9
2009-01-16 12:32:10 51°14.44 2°50.542 80.4 11.3 82 9.6
2009-01-16 12:33:10 51°14.468 2°50.84 80.5 11.4 83 9.3
2009-01-16 12:34:10 51°14.5 2°51.138 76.5 11.4 78 9.1
2009-01-16 12:35:10 51°14.537 2°51.433 77.2 11.4 79 9.1
2009-01-16 12:36:10 51°14.569 2°51.731 78.2 11.4 81 9
2009-01-16 12:37:10 51°14.602 2°52.029 78.6 11.5 80 8.9
2009-01-16 12:38:10 51°14.627 2°52.332 79.3 11.6 83 8.8
2009-01-16 12:39:10 51°14.649 2°52.606 79.2 8.7 81 8.9
2009-01-16 12:40:10 51°14.668 2°52.79 79.3 6.1 83 8.8
2009-01-16 12:41:10 51°14.678 2°52.937 80.6 5.1 84 8.7
2009-01-16 12:42:10 51°14.685 2°53.062 80.8 4.6 83 8.7
2009-01-16 12:43:10 51°14.694 2°53.179 80.8 4.1 84 8.7
2009-01-16 12:44:10 51°14.698 2°53.279 84 3.6 87 8.8
2009-01-16 12:45:10 51°14.701 2°53.373 83 3.5 86 8.8
2009-01-16 12:46:10 51°14.707 2°53.472 81.6 4.2 83 9.1
2009-01-16 12:47:10 51°14.725 2°53.591 72 5.2 76 10
2009-01-16 12:48:10 51°14.696 2°53.766 113.4 9.8 114 9.9
2009-01-16 12:49:10 51°14.613 2°54.034 114.1 11.7 118 10.7
2009-01-16 12:50:10 51°14.548 2°54.326 103.5 11.7 103 10.3
2009-01-16 12:51:10 51°14.499 2°54.623 105.2 11.6 107 10.3
2009-01-16 12:52:10 51°14.423 2°54.903 117.2 11.5 119 10.2
2009-01-16 12:53:10 51°14.315 2°55.153 125.1 10.2 127 10.3
2009-01-16 12:54:11 51°14.213 2°55.327 139.7 8 141 -999
2009-01-16 12:56:20 51°14.138 2°55.401 153.2 -999 -999 -999
2009-01-16 12:57:20 51°13.899 2°55.578 154.8 5.5 153 -999
2009-01-16 12:58:20 51°13.814 2°55.642 150.5 5.6 152 -999
2009-01-16 12:59:20 51°13.742 2°55.732 131.6 5.5 133 -999
2009-01-16 13:00:20 51°13.693 2°55.837 119.5 4.4 121 -999
2009-01-16 13:01:20 51°13.674 2°55.918 108.4 2.1 99 -999